Flight Track Log - Related Links

Times and Time Zones

All times are in EDT time to prevent confusion due to time zone crossing. See the FLG3735 flight status page for this flight to view local times or setup timezone preferences in your user account.

Time Position Orientation Groundspeed Altitude Reporting Facility
EDT Latitude Longitude Course Direction KTS MPH feet Rate Location/Type
Sun 10:07:50 PM 42.2375 -83.3317 56° Northeast 167 192 1,400  Level Cleveland Center
Sun 10:08:51 PM 42.2864 -83.2944 29° Northeast 215 247 3,400 1,869 Climbing Cleveland Center
Sun 10:09:52 PM 42.3194 -83.2200 59° Northeast 274 315 5,200 2,224 Climbing Cleveland Center
Sun 10:10:47 PM 42.3256 -83.1333 85° East 277 319 7,700 2,409 Climbing Cleveland Center
Sun 10:11:00 PM 42.3131 -82.7681 75° East  Level FlightAware Approximate
Sun 10:12:00 PM 42.3298 -82.6193 82° East  Level FlightAware Approximate
Sun 10:12:09 PM 42.3331 -82.9847 86° East 313 360 10,700  Level Cleveland Center
Sun 10:13:00 PM 42.3544 -82.4745 56° Northeast  Level FlightAware Approximate
Sun 10:13:10 PM 42.3419 -82.8503 85° East 339 390 11,400  Level Cleveland Center
Sun 10:14:10 PM 42.3511 -82.7017 85° East 372 428 12,900 1,450 Climbing Cleveland Center
Sun 10:15:10 PM 42.3600 -82.5503 85° East 393 452 14,300 1,400 Climbing Cleveland Center
Sun 10:16:10 PM 42.3647 -82.3928 88° East 407 468 15,700 1,300 Climbing Cleveland Center
Sun 10:17:10 PM 42.3567 -82.2381 94° East 412 474 16,900 1,150 Climbing Cleveland Center
Sun 10:18:10 PM 42.3525 -82.0750 92° East 424 488 18,000 1,100 Climbing Cleveland Center
Sun 10:19:10 PM 42.3442 -81.9006 94° East 432 497 19,100 1,050 Climbing Cleveland Center
Sun 10:20:10 PM 42.3356 -81.7403 94° East 432 497 20,100 1,000 Climbing Cleveland Center
Sun 10:21:10 PM 42.3308 -81.5747 92° East 437 503 21,100 950 Climbing Cleveland Center
Sun 10:22:10 PM 42.3217 -81.4117 94° East 437 503 22,000 850 Climbing Cleveland Center
Sun 10:23:10 PM 42.3144 -81.2486 93° East 443 510 22,800 800 Climbing Cleveland Center
Sun 10:24:10 PM 42.3050 -81.0800 94° East 443 510 23,600 700 Climbing Cleveland Center
Sun 10:25:10 PM 42.2972 -80.9089 93° East 443 510 24,200 600 Climbing Cleveland Center
Sun 10:26:10 PM 42.2892 -80.7628 94° East 443 510 24,800 600 Climbing Cleveland Center
Sun 10:27:10 PM 42.2975 -80.5917 86° East 443 510 25,400 600 Climbing Cleveland Center
Sun 10:28:10 PM 42.3142 -80.4231 82° East 443 510 26,000 600 Climbing Cleveland Center
Sun 10:29:10 PM 42.3306 -80.2517 83° East 453 521 26,600 504 Climbing Cleveland Center
Sun 10:30:09 PM 42.3467 -80.0831 83° East 453 521 27,000 200 Climbing Cleveland Center
Sun 10:31:10 PM 42.3625 -79.9089 83° East 458 527 27,000  Level Cleveland Center
Sun 10:32:10 PM 42.3778 -79.7317 83° East 464 534 27,000  Level Cleveland Center
Sun 10:33:10 PM 42.3931 -79.5542 83° East 470 541 27,000  Level Cleveland Center
Sun 10:34:10 PM 42.4100 -79.3739 83° East 470 541 27,000  Level Cleveland Center
Sun 10:35:10 PM 42.4247 -79.1964 84° East 470 541 27,000  Level Cleveland Center
Sun 10:36:09 PM 42.4392 -79.0161 84° East 475 547 27,000  Level Cleveland Center
Sun 10:37:10 PM 42.4572 -78.8186 83° East 481 554 27,000  Level Cleveland Center
Sun 10:38:10 PM 42.4711 -78.6408 84° East 481 554 27,000  Level Cleveland Center
Sun 10:39:10 PM 42.4867 -78.4631 83° East 481 554 27,000  Level Cleveland Center
Sun 10:40:10 PM 42.5000 -78.2853 84° East 481 554 27,000  Level Cleveland Center
Sun 10:41:10 PM 42.5128 -78.1044 84° East 481 554 27,000  Level Cleveland Center
Sun 10:42:10 PM 42.5256 -77.9236 84° East 481 554 27,000  Level Cleveland Center
Sun 10:43:10 PM 42.5342 -77.7683 86° East 476 548 27,000  Level Cleveland Center
Sun 10:44:10 PM 42.5506 -77.5897 83° East 476 548 27,000  Level Cleveland Center
Sun 10:46:36 PM 42.5775 -77.1611 85° East 458 527 27,000  Level Boston Center
Sun 10:47:36 PM 42.5883 -76.9953 85° East 453 521 27,000  Level Boston Center
Sun 10:48:36 PM 42.5992 -76.8239 85° East 447 514 27,000  Level Boston Center
Sun 10:49:36 PM 42.6100 -76.6525 85° East 447 514 27,000  Level Boston Center
Sun 10:50:36 PM 42.6206 -76.4753 85° East 457 526 27,000  Level Boston Center
Sun 10:51:36 PM 42.6308 -76.3011 85° East 462 532 27,000 -150 Level Boston Center
Sun 10:52:36 PM 42.6433 -76.1069 85° East 462 532 26,700 -1,100 Descending Boston Center
Sun 10:53:36 PM 42.6511 -75.9267 87° East 462 532 24,800 -1,850 Descending Boston Center
Sun 10:54:36 PM 42.6628 -75.7494 85° East 467 537 23,000 -1,636 Descending Boston Center
Sun 10:55:48 PM 42.6719 -75.5775 86° East 467 537 21,200 -1,727 Descending Boston Center
Sun 10:56:48 PM 42.6817 -75.3692 86° East 455 524 19,200 -1,750 Descending Boston Center
Sun 10:57:48 PM 42.6897 -75.2056 86° East 444 511 17,700 -1,546 Descending Boston Center
Sun 10:58:25 PM 42.6942 -75.1153 86° East 426 490 16,700 -1,600 Descending Boston Center
Sun 10:58:48 PM 42.6975 -75.0506 86° East 429 494 16,100 -1,562 Descending Boston Center
Sun 10:59:38 PM 42.7025 -74.9319 87° East 399 459 14,800 -1,473 Descending Boston Center
Sun 11:00:38 PM 42.7094 -74.7939 86° East 366 421 13,400 -1,537 Descending Boston Center
Sun 11:01:39 PM 42.7147 -74.6442 87° East 363 418 11,700 -1,230 Descending Boston Center
Sun 11:02:40 PM 42.7233 -74.5089 85° East 364 419 10,900 -893 Descending Boston Center
Sun 11:03:40 PM 42.7628 -74.4000 64° Northeast 299 344 9,900 -1,289 Descending Boston Center
Sun 11:04:41 PM 42.7997 -74.3078 61° Northeast 270 311 8,300 -1,587 Descending Boston Center
Sun 11:05:41 PM 42.8347 -74.2181 62° Northeast 268 308 6,700 -1,512 Descending Boston Center
Sun 11:06:48 PM 42.8736 -74.1200 62° Northeast 265 305 5,100 -1,512 Descending Boston Center
Sun 11:07:48 PM 42.8853 -74.0269 80° East 260 299 3,500 -1,300 Descending Boston Center
Sun 11:08:48 PM 42.8972 -73.9167 82° East 265 305 2,500 -750 Descending Boston Center
Sun 11:09:48 PM 42.9003 -73.8403 87° East 242 278 2,000 -250 Descending Boston Center
Sun 11:10:48 PM 42.8694 -73.8083 143° Southeast 169 194 2,000  Level Boston Center

Login

Don't have an account? Register now (free) for customized features, flight alerts, and more!